Time;durP1;ratioP1;P1;durP2;ratioP2;P2;SDS_P1;SDS_P2;PMS_P1;PMS_P2;Temp;Humidity;BMP_temperature;BMP_pressure;BME280_temperature;BME280_humidity;BME280_pressure;Samples;Min_cycle;Max_cycle;Signal;HPM_P1;HPM_P2
2021/09/28 00:02:21;;;;;;;1999.90;776.00;;;15.30;99.90;;;;;;5000387;28;20475;-79
2021/09/28 00:04:51;;;;;;;1578.63;177.30;;;15.30;99.90;;;;;;4999960;28;20426;-80
2021/09/28 00:07:19;;;;;;;1570.23;184.40;;;15.30;99.90;;;;;;5017497;28;20447;-80
2021/09/28 00:09:47;;;;;;;1999.90;999.90;;;15.30;99.90;;;;;;5017490;28;20382;-80
2021/09/28 00:12:15;;;;;;;1355.93;169.47;;;15.20;99.90;;;;;;5002106;28;20251;-80
2021/09/28 00:14:44;;;;;;;1734.07;230.47;;;15.20;99.90;;;;;;5021406;28;20895;-80
2021/09/28 00:17:12;;;;;;;301.73;161.60;;;15.10;99.90;;;;;;5029276;28;20442;-80
2021/09/28 00:19:41;;;;;;;1999.90;997.00;;;15.20;99.90;;;;;;5011118;28;20227;-80
2021/09/28 00:22:10;;;;;;;1999.90;604.80;;;15.20;99.90;;;;;;5009124;28;20500;-80
2021/09/28 00:24:38;;;;;;;1963.73;298.50;;;15.10;99.90;;;;;;5022414;28;20453;-80
2021/09/28 00:27:07;;;;;;;1978.57;331.47;;;15.10;99.90;;;;;;5022124;28;20855;-80
2021/09/28 00:29:35;;;;;;;1999.90;810.80;;;15.00;99.90;;;;;;5021638;28;20425;-80
2021/09/28 00:32:06;;;;;;;1882.90;303.73;;;15.00;99.90;;;;;;5039897;28;20470;-80
2021/09/28 00:34:34;;;;;;;1999.90;827.80;;;14.90;99.90;;;;;;5021799;28;20433;-80
2021/09/28 00:37:02;;;;;;;1781.30;264.93;;;14.90;99.90;;;;;;5022200;28;20561;-80
2021/09/28 00:39:32;;;;;;;1999.90;818.00;;;14.80;99.90;;;;;;5022571;28;20991;-80
2021/09/28 00:42:00;;;;;;;318.45;167.18;;;14.80;99.90;;;;;;5021074;28;20456;-80
2021/09/28 00:44:33;;;;;;;1999.90;999.90;;;14.80;99.90;;;;;;5022653;28;20234;-80
2021/09/28 00:47:02;;;;;;;1250.87;585.80;;;14.80;99.90;;;;;;5040193;28;20537;-80
2021/09/28 00:49:30;;;;;;;1999.90;802.57;;;14.80;99.90;;;;;;5026640;28;20447;-80
2021/09/28 00:51:58;;;;;;;1999.90;767.73;;;14.80;99.90;;;;;;5004329;28;20550;-80
2021/09/28 00:54:26;;;;;;;1999.90;839.33;;;14.70;99.90;;;;;;5022212;28;20469;-80
2021/09/28 00:56:56;;;;;;;1999.90;894.83;;;14.70;99.90;;;;;;5022151;28;20441;-80
2021/09/28 00:59:24;;;;;;;1999.90;873.03;;;14.60;99.90;;;;;;5003811;28;20599;-80
2021/09/28 01:01:53;;;;;;;1999.90;870.43;;;14.60;99.90;;;;;;5012976;28;20490;-80
2021/09/28 01:04:23;;;;;;;1925.27;299.87;;;14.60;99.90;;;;;;5010660;28;20546;-80
2021/09/28 01:06:51;;;;;;;1999.90;757.53;;;14.50;99.90;;;;;;5001443;28;20575;-80
2021/09/28 01:09:19;;;;;;;1999.90;802.67;;;14.50;99.90;;;;;;5021699;28;20426;-80
2021/09/28 01:11:48;;;;;;;1999.90;822.50;;;14.50;99.90;;;;;;5021989;28;20453;-80
2021/09/28 01:14:17;;;;;;;38.20;34.67;;;14.50;99.90;;;;;;5021959;28;20441;-80
2021/09/28 01:16:46;;;;;;;1999.90;999.90;;;14.60;99.90;;;;;;5014628;28;20279;-80
2021/09/28 01:19:14;;;;;;;1999.90;517.33;;;14.50;99.90;;;;;;5028821;28;20531;-79
2021/09/28 01:21:43;;;;;;;1999.90;897.37;;;14.50;99.90;;;;;;5039528;28;20475;-80
2021/09/28 01:24:12;;;;;;;1872.83;284.93;;;14.40;99.90;;;;;;5004403;28;20495;-80
2021/09/28 01:26:40;;;;;;;1894.20;275.63;;;14.40;99.90;;;;;;5001563;28;20471;-80
2021/09/28 01:29:09;;;;;;;1722.97;215.87;;;14.40;99.90;;;;;;5001394;28;20543;-80
2021/09/28 01:31:38;;;;;;;1999.90;793.57;;;14.30;99.90;;;;;;5001480;28;20451;-80
2021/09/28 01:34:06;;;;;;;1999.90;788.70;;;14.30;99.90;;;;;;5010769;28;20460;-79
2021/09/28 01:36:35;;;;;;;1999.90;797.63;;;14.30;99.90;;;;;;5008109;28;20457;-79
2021/09/28 01:39:07;;;;;;;1999.90;793.17;;;14.20;99.90;;;;;;5036431;28;20459;-80
2021/09/28 01:41:36;;;;;;;1489.30;169.40;;;14.20;99.90;;;;;;5020577;28;20489;-80
2021/09/28 01:44:05;;;;;;;1999.90;805.13;;;14.20;99.90;;;;;;5020492;28;20500;-80
2021/09/28 01:46:36;;;;;;;1946.00;318.67;;;14.20;99.90;;;;;;5038991;28;20459;-80
2021/09/28 01:49:04;;;;;;;1249.03;538.55;;;14.20;99.90;;;;;;5038835;28;21007;-80
2021/09/28 01:51:33;;;;;;;1999.90;612.67;;;14.20;99.90;;;;;;5020358;28;20242;-80
2021/09/28 01:54:01;;;;;;;1927.60;314.20;;;14.20;99.90;;;;;;5020637;28;20814;-80
2021/09/28 01:56:31;;;;;;;1999.90;818.30;;;14.10;99.90;;;;;;5020375;28;20918;-80
2021/09/28 01:59:01;;;;;;;1999.90;793.97;;;14.10;99.90;;;;;;5020091;28;20447;-80
2021/09/28 02:01:29;;;;;;;1999.90;803.97;;;14.10;99.90;;;;;;5038848;28;20469;-80
2021/09/28 02:03:59;;;;;;;1999.90;784.27;;;14.00;99.90;;;;;;5020777;28;20486;-80
2021/09/28 02:06:29;;;;;;;1789.33;228.20;;;14.00;99.90;;;;;;5020817;28;20525;-80
2021/09/28 02:08:58;;;;;;;1440.27;238.00;;;14.00;99.90;;;;;;5021389;28;20455;-80
2021/09/28 02:11:26;;;;;;;1315.17;221.27;;;14.00;99.90;;;;;;5020277;28;20417;-80
2021/09/28 02:13:55;;;;;;;1663.60;243.50;;;14.00;99.90;;;;;;5020641;28;20470;-80
2021/09/28 02:16:24;;;;;;;1376.03;197.10;;;13.90;99.90;;;;;;5020079;28;20985;-80
2021/09/28 02:18:52;;;;;;;881.93;149.67;;;13.90;99.90;;;;;;5037180;28;20818;-80
2021/09/28 02:21:20;;;;;;;759.88;442.60;;;13.90;99.90;;;;;;5019521;28;20527;-80
2021/09/28 02:23:48;;;;;;;1999.90;606.63;;;13.90;99.90;;;;;;5036624;28;20275;-79
2021/09/28 02:26:17;;;;;;;1999.90;490.48;;;13.90;99.90;;;;;;5018874;28;20437;-80
2021/09/28 02:28:45;;;;;;;1728.73;281.53;;;13.90;99.90;;;;;;5019042;28;20207;-79
2021/09/28 02:31:14;;;;;;;1914.33;271.33;;;13.90;99.90;;;;;;5036706;28;20496;-79
2021/09/28 02:33:43;;;;;;;1217.80;235.93;;;13.80;99.90;;;;;;5018138;28;20507;-79
2021/09/28 02:36:11;;;;;;;961.27;228.67;;;13.80;99.90;;;;;;5018584;28;20463;-79
2021/09/28 02:38:40;;;;;;;934.87;237.80;;;13.80;99.90;;;;;;5036274;28;20439;-80
2021/09/28 02:41:08;;;;;;;792.57;202.07;;;13.70;99.90;;;;;;5037026;28;20447;-79
2021/09/28 02:43:36;;;;;;;557.63;169.53;;;13.70;99.90;;;;;;5019416;28;20451;-80
2021/09/28 02:46:04;;;;;;;745.40;162.60;;;13.70;99.90;;;;;;5019090;28;20509;-80
2021/09/28 02:48:34;;;;;;;1015.67;193.97;;;13.70;99.90;;;;;;5019299;28;20455;-80
2021/09/28 02:51:02;;;;;;;714.47;190.07;;;13.70;99.90;;;;;;5018213;28;20461;-80
2021/09/28 02:53:31;;;;;;;894.70;209.27;;;13.70;99.90;;;;;;5018520;28;20479;-79
2021/09/28 02:55:59;;;;;;;1756.97;415.43;;;13.70;99.90;;;;;;5018396;28;20464;-80
2021/09/28 02:58:27;;;;;;;1349.33;462.10;;;13.60;99.90;;;;;;5017961;28;20453;-79
2021/09/28 03:00:55;;;;;;;1973.60;355.70;;;13.60;99.90;;;;;;5017975;28;20447;-79
2021/09/28 03:03:23;;;;;;;1237.80;250.80;;;13.60;99.90;;;;;;5018048;28;20444;-79
2021/09/28 03:05:53;;;;;;;44.58;40.30;;;13.60;99.90;;;;;;5035139;28;20437;-80
2021/09/28 03:08:21;;;;;;;1999.90;999.90;;;13.70;99.90;;;;;;5018405;28;20196;-80
2021/09/28 03:10:49;;;;;;;1931.63;283.73;;;13.70;99.90;;;;;;5036258;28;20518;-80
2021/09/28 03:13:17;;;;;;;1999.90;786.77;;;13.60;99.90;;;;;;5018479;28;21028;-80
2021/09/28 03:15:46;;;;;;;1219.63;220.93;;;13.60;99.90;;;;;;5018595;28;20569;-79
2021/09/28 03:18:14;;;;;;;930.87;226.77;;;13.60;99.90;;;;;;5036405;28;20473;-79
2021/09/28 03:20:42;;;;;;;1165.73;254.10;;;13.50;99.90;;;;;;5018324;28;20450;-80
2021/09/28 03:23:11;;;;;;;944.20;248.63;;;13.50;99.90;;;;;;5036085;28;21033;-79
2021/09/28 03:25:41;;;;;;;351.03;124.13;;;13.50;99.90;;;;;;5018520;28;20467;-79
2021/09/28 03:28:09;;;;;;;698.73;183.43;;;13.50;99.90;;;;;;5018023;28;20443;-80
2021/09/28 03:30:38;;;;;;;439.87;142.90;;;13.40;99.90;;;;;;5018066;28;20443;-80
2021/09/28 03:33:06;;;;;;;415.23;118.10;;;13.40;99.90;;;;;;5018018;28;20467;-79
2021/09/28 03:35:34;;;;;;;840.87;247.70;;;13.40;99.90;;;;;;5017941;28;20852;-79
2021/09/28 03:38:02;;;;;;;144.10;66.60;;;13.30;99.90;;;;;;5036694;28;20435;-80
2021/09/28 03:40:32;;;;;;;321.67;109.83;;;13.30;99.90;;;;;;5018474;28;20526;-80
2021/09/28 03:43:06;;;;;;;97.23;76.70;;;13.30;99.90;;;;;;5017456;28;20873;-80
2021/09/28 03:45:34;;;;;;;1999.90;888.43;;;13.40;99.90;;;;;;5037980;28;20570;-79
2021/09/28 03:48:03;;;;;;;1999.90;377.67;;;13.30;99.90;;;;;;5022262;28;20460;-79
2021/09/28 03:50:32;;;;;;;910.57;222.90;;;13.30;99.90;;;;;;5022239;28;20545;-80
2021/09/28 03:53:02;;;;;;;487.33;131.90;;;13.30;99.90;;;;;;5021972;28;20447;-80
2021/09/28 03:55:33;;;;;;;356.57;135.83;;;13.20;99.90;;;;;;5039224;28;20454;-80
2021/09/28 03:58:01;;;;;;;379.90;128.93;;;13.20;99.90;;;;;;5022020;28;20538;-80
2021/09/28 04:00:31;;;;;;;301.27;104.40;;;13.20;99.90;;;;;;5021686;28;20537;-79
2021/09/28 04:03:01;;;;;;;560.90;168.03;;;13.10;99.90;;;;;;5022580;28;20447;-80
2021/09/28 04:05:30;;;;;;;507.33;123.50;;;13.10;99.90;;;;;;5022062;28;20493;-79
2021/09/28 04:07:58;;;;;;;253.77;101.90;;;13.10;99.90;;;;;;5021357;28;20459;-79
2021/09/28 04:10:26;;;;;;;233.07;85.80;;;13.10;99.90;;;;;;5021109;28;20451;-80
2021/09/28 04:12:56;;;;;;;593.20;170.47;;;13.00;99.90;;;;;;5039264;28;20934;-80
2021/09/28 04:15:25;;;;;;;115.40;96.60;;;13.00;99.90;;;;;;5021027;28;20453;-80
2021/09/28 04:17:54;;;;;;;1999.90;786.87;;;13.00;99.90;;;;;;5021535;28;20576;-79
2021/09/28 04:20:22;;;;;;;1202.80;583.47;;;13.00;99.90;;;;;;5020965;28;20445;-79
2021/09/28 04:22:50;;;;;;;1999.90;722.07;;;13.00;99.90;;;;;;5020878;28;20755;-79
2021/09/28 04:25:19;;;;;;;462.10;138.73;;;13.00;99.90;;;;;;5039432;28;20467;-80
2021/09/28 04:27:47;;;;;;;518.70;161.07;;;13.00;99.90;;;;;;5021670;28;20470;-80
2021/09/28 04:30:17;;;;;;;440.63;131.93;;;12.90;99.90;;;;;;5021139;28;20938;-80
2021/09/28 04:32:45;;;;;;;323.33;109.10;;;12.80;99.90;;;;;;5020671;28;20455;-79
2021/09/28 04:35:13;;;;;;;394.60;115.73;;;12.80;99.90;;;;;;5038870;28;20474;-79
2021/09/28 04:37:41;;;;;;;202.37;60.27;;;12.80;99.90;;;;;;5021176;28;20544;-80
2021/09/28 04:40:11;;;;;;;62.27;37.13;;;12.80;99.90;;;;;;5020278;28;20541;-79
2021/09/28 04:42:39;;;;;;;396.13;103.03;;;12.80;99.90;;;;;;5020791;28;20843;-80
2021/09/28 04:45:08;;;;;;;400.40;107.73;;;12.70;99.90;;;;;;5020475;28;20455;-79
2021/09/28 04:47:38;;;;;;;393.07;125.13;;;12.70;99.90;;;;;;5038629;28;20705;-79
2021/09/28 04:50:08;;;;;;;375.73;104.87;;;12.70;99.90;;;;;;5020418;28;20451;-79
2021/09/28 04:52:37;;;;;;;288.77;93.77;;;12.70;99.90;;;;;;5020285;28;20500;-80
2021/09/28 04:55:06;;;;;;;19.63;18.05;;;12.60;99.90;;;;;;5019703;28;20445;-79
2021/09/28 04:57:34;;;;;;;1999.90;999.90;;;12.70;99.90;;;;;;5019684;28;20655;-79
2021/09/28 05:00:03;;;;;;;1615.97;314.37;;;12.70;99.90;;;;;;5038490;28;20470;-79
2021/09/28 05:02:32;;;;;;;512.03;140.37;;;12.70;99.90;;;;;;5020723;28;20451;-79
2021/09/28 05:05:01;;;;;;;633.43;171.13;;;12.60;99.90;;;;;;5020774;28;20478;-79
2021/09/28 05:07:30;;;;;;;430.87;150.00;;;12.60;99.90;;;;;;5038238;28;20463;-80
2021/09/28 05:09:58;;;;;;;429.10;111.17;;;12.60;99.90;;;;;;5019940;28;20486;-80
2021/09/28 05:12:26;;;;;;;345.10;110.77;;;12.50;99.90;;;;;;5037866;28;20438;-80
2021/09/28 05:14:56;;;;;;;396.37;103.40;;;12.50;99.90;;;;;;5020068;28;20471;-79
2021/09/28 05:17:24;;;;;;;564.00;130.90;;;12.50;99.90;;;;;;5038143;28;20561;-79
2021/09/28 05:19:53;;;;;;;368.33;112.80;;;12.50;99.90;;;;;;5019680;28;20497;-80
2021/09/28 05:22:22;;;;;;;312.02;70.40;;;12.50;99.90;;;;;;5019789;28;20808;-78
2021/09/28 05:24:50;;;;;;;419.40;116.37;;;12.50;99.90;;;;;;5037264;28;20264;-79
2021/09/28 05:27:18;;;;;;;354.90;118.20;;;12.40;99.90;;;;;;5036992;28;20439;-79
2021/09/28 05:29:47;;;;;;;477.00;120.30;;;12.50;99.90;;;;;;5019335;28;20454;-79
2021/09/28 05:32:15;;;;;;;377.67;101.03;;;12.40;99.90;;;;;;5019100;28;20552;-79
2021/09/28 05:34:43;;;;;;;535.73;117.87;;;12.40;99.90;;;;;;5019165;28;20498;-79
2021/09/28 05:37:11;;;;;;;487.40;146.87;;;12.40;99.90;;;;;;5018704;28;20997;-79
2021/09/28 05:39:41;;;;;;;281.07;75.40;;;12.40;99.90;;;;;;5018957;28;20501;-79
2021/09/28 05:42:09;;;;;;;457.13;130.97;;;12.40;99.90;;;;;;5037304;28;20953;-79
2021/09/28 05:44:40;;;;;;;417.23;100.20;;;12.40;99.90;;;;;;5037091;28;20519;-79
2021/09/28 05:47:09;;;;;;;431.17;111.60;;;12.30;99.90;;;;;;5037264;28;20459;-79
2021/09/28 05:49:39;;;;;;;486.23;107.70;;;12.30;99.90;;;;;;5019073;28;20546;-79
2021/09/28 05:52:11;;;;;;;385.63;112.07;;;12.30;99.90;;;;;;5018903;28;20446;-79
2021/09/28 05:54:47;;;;;;;459.23;129.93;;;12.30;99.90;;;;;;5019174;28;20467;-79
2021/09/28 05:57:16;;;;;;;425.17;109.47;;;12.30;99.90;;;;;;5018988;28;20470;-79
2021/09/28 05:59:45;;;;;;;330.37;78.13;;;12.30;99.90;;;;;;5020633;28;20537;-79
2021/09/28 06:02:15;;;;;;;356.30;106.03;;;12.30;99.90;;;;;;5037777;28;20442;-79
2021/09/28 06:04:43;;;;;;;19.20;17.50;;;12.30;99.90;;;;;;5018744;28;20449;-80
2021/09/28 06:07:17;;;;;;;1999.90;999.90;;;12.40;99.90;;;;;;5018294;28;20220;-79
2021/09/28 06:09:48;;;;;;;35.90;32.35;;;12.40;99.90;;;;;;5036245;28;20536;-78
2021/09/28 06:12:17;;;;;;;1999.90;999.90;;;12.40;99.90;;;;;;5020243;28;20196;-80
2021/09/28 06:14:46;;;;;;;694.07;214.30;;;12.40;99.90;;;;;;5019881;28;20510;-79
2021/09/28 06:17:15;;;;;;;439.23;131.23;;;12.40;99.90;;;;;;5019184;28;20475;-79
2021/09/28 06:19:43;;;;;;;493.10;127.07;;;12.50;99.90;;;;;;5019963;28;20542;-79
2021/09/28 06:22:11;;;;;;;399.73;107.17;;;12.60;99.90;;;;;;5019811;28;20450;-79
2021/09/28 06:24:39;;;;;;;364.83;99.57;;;12.60;99.90;;;;;;5019773;28;20938;-80
2021/09/28 06:27:09;;;;;;;371.87;122.03;;;12.70;99.90;;;;;;5020071;28;20877;-80
2021/09/28 06:29:38;;;;;;;401.47;113.17;;;12.70;99.90;;;;;;5019682;28;20497;-79
2021/09/28 06:32:07;;;;;;;381.33;103.13;;;12.70;99.90;;;;;;5037580;28;20458;-79
2021/09/28 06:34:35;;;;;;;359.90;98.23;;;12.70;99.90;;;;;;5037607;28;20524;-79
2021/09/28 06:37:03;;;;;;;422.43;141.53;;;12.70;99.90;;;;;;5037182;28;20477;-79
2021/09/28 06:39:32;;;;;;;27.58;25.20;;;12.60;99.90;;;;;;5018701;28;20453;-79
2021/09/28 06:42:00;;;;;;;1999.90;999.90;;;12.70;99.90;;;;;;5019958;28;20681;-79
2021/09/28 06:44:30;;;;;;;37.08;34.08;;;12.70;99.90;;;;;;5019143;28;20536;-80
2021/09/28 06:46:58;;;;;;;1999.90;999.90;;;12.70;99.90;;;;;;5019690;28;20571;-79
2021/09/28 06:49:26;;;;;;;1006.40;255.57;;;12.70;99.90;;;;;;5019813;28;20455;-80
2021/09/28 06:51:58;;;;;;;720.27;155.80;;;12.70;99.90;;;;;;5019678;28;21028;-79
2021/09/28 06:54:26;;;;;;;422.30;142.70;;;12.60;99.90;;;;;;5019323;28;20451;-80
2021/09/28 06:56:55;;;;;;;537.80;116.57;;;12.60;99.90;;;;;;5018710;28;20495;-78
2021/09/28 06:59:23;;;;;;;441.27;91.60;;;12.70;99.90;;;;;;5018795;28;20463;-79
2021/09/28 07:01:52;;;;;;;494.67;97.30;;;12.60;99.90;;;;;;5018570;28;20453;-79
2021/09/28 07:04:21;;;;;;;503.80;123.90;;;12.60;99.90;;;;;;5019196;28;20469;-79
2021/09/28 07:06:49;;;;;;;404.47;142.63;;;12.70;99.90;;;;;;5018706;28;20474;-78
2021/09/28 07:09:18;;;;;;;322.63;114.27;;;12.70;99.90;;;;;;5018495;28;21119;-79
2021/09/28 07:11:46;;;;;;;467.40;109.80;;;12.70;99.90;;;;;;5019066;28;20459;-79
2021/09/28 07:14:14;;;;;;;499.90;118.70;;;12.70;99.90;;;;;;5036824;28;20461;-79
2021/09/28 07:16:42;;;;;;;231.00;99.37;;;12.70;99.90;;;;;;5018535;28;20569;-79
2021/09/28 07:19:13;;;;;;;378.97;127.10;;;12.80;99.90;;;;;;5018192;28;20526;-79
2021/09/28 07:21:41;;;;;;;24.00;21.70;;;12.80;99.90;;;;;;5017969;28;20467;-79
2021/09/28 07:24:11;;;;;;;1759.17;683.17;;;12.90;99.90;;;;;;5036522;28;20223;-79
2021/09/28 07:26:41;;;;;;;23.13;20.83;;;12.90;99.90;;;;;;5017210;28;20449;-80
2021/09/28 07:29:10;;;;;;;1924.13;724.20;;;12.90;99.90;;;;;;5017962;28;20303;-79
2021/09/28 07:31:38;;;;;;;1999.90;932.53;;;13.00;99.90;;;;;;5018385;28;20454;-79
2021/09/28 07:34:06;;;;;;;1660.67;503.40;;;13.00;99.90;;;;;;5018754;28;20993;-81
2021/09/28 07:36:36;;;;;;;587.23;183.37;;;13.00;99.90;;;;;;5036361;28;20478;-79
2021/09/28 07:39:05;;;;;;;666.57;181.80;;;13.00;99.90;;;;;;5018061;28;20529;-79
2021/09/28 07:41:33;;;;;;;561.13;185.23;;;13.00;99.90;;;;;;5018190;28;20953;-79
2021/09/28 07:44:02;;;;;;;509.70;162.33;;;13.10;99.90;;;;;;5036093;28;20447;-79
2021/09/28 07:46:30;;;;;;;293.70;111.37;;;13.10;99.90;;;;;;5035768;28;20470;-78
2021/09/28 07:48:59;;;;;;;697.93;217.77;;;13.20;99.90;;;;;;5018275;28;20457;-79
2021/09/28 07:51:27;;;;;;;374.17;110.00;;;13.20;99.90;;;;;;5018179;28;20450;-79
2021/09/28 07:53:57;;;;;;;1677.37;524.33;;;13.30;99.90;;;;;;5035921;28;20860;-79
2021/09/28 07:56:27;;;;;;;36.60;32.70;;;13.40;99.90;;;;;;5017246;28;20445;-79
2021/09/28 07:58:55;;;;;;;1999.90;923.60;;;13.50;99.90;;;;;;5018345;28;20722;-79
2021/09/28 08:01:23;;;;;;;60.85;51.83;;;13.60;99.90;;;;;;5018281;28;20768;-79
2021/09/28 08:03:53;;;;;;;1999.90;999.90;;;13.80;99.90;;;;;;5017942;28;20200;-78
2021/09/28 08:06:21;;;;;;;1999.90;999.90;;;13.90;99.90;;;;;;5036042;28;20548;-79
2021/09/28 08:08:49;;;;;;;1999.90;999.90;;;14.10;99.90;;;;;;5018344;28;20950;-79
2021/09/28 08:11:19;;;;;;;1999.90;999.90;;;14.20;99.90;;;;;;5017369;28;20461;-79
2021/09/28 08:13:47;;;;;;;1999.90;946.47;;;14.30;99.90;;;;;;5035911;28;20526;-79
2021/09/28 08:16:15;;;;;;;1999.90;889.97;;;14.50;99.90;;;;;;5036040;28;20491;-79
2021/09/28 08:18:43;;;;;;;1999.90;714.53;;;14.60;99.90;;;;;;5018068;28;20425;-79
2021/09/28 08:21:12;;;;;;;1999.90;815.73;;;14.70;99.90;;;;;;5017337;28;20425;-79
2021/09/28 08:23:40;;;;;;;1999.90;974.47;;;14.80;99.90;;;;;;5017530;28;20439;-79
2021/09/28 08:29:13;;;;;;;1999.90;379.37;;;15.10;99.90;;;;;;4955200;29;20478;-79
2021/09/28 08:31:44;;;;;;;1999.90;999.90;;;15.20;99.90;;;;;;5021504;28;20534;-79
2021/09/28 08:34:13;;;;;;;1999.90;890.33;;;15.40;99.90;;;;;;5038323;28;20272;-79
2021/09/28 08:36:42;;;;;;;1999.90;739.50;;;15.50;99.90;;;;;;5038835;28;20442;-79
2021/09/28 08:39:15;;;;;;;1999.90;628.27;;;15.60;99.90;;;;;;5038562;28;20202;-79
2021/09/28 08:41:44;;;;;;;1999.90;298.53;;;15.70;99.90;;;;;;5038329;28;20493;-79
2021/09/28 08:44:15;;;;;;;1649.13;179.17;;;15.80;99.90;;;;;;5020506;28;20443;-79
2021/09/28 08:46:47;;;;;;;1999.90;999.90;;;15.90;99.90;;;;;;5020298;28;20479;-79
2021/09/28 08:49:18;;;;;;;1999.90;999.90;;;15.90;99.90;;;;;;5020523;28;20809;-79
2021/09/28 08:51:47;;;;;;;1999.90;999.90;;;16.00;99.90;;;;;;5038308;28;20534;-79
2021/09/28 08:54:15;;;;;;;1768.83;706.60;;;16.00;99.90;;;;;;5038019;28;20418;-79
2021/09/28 08:56:44;;;;;;;1999.90;999.90;;;16.10;99.90;;;;;;5020090;28;20471;-79
2021/09/28 08:59:15;;;;;;;1999.90;999.90;;;16.10;99.90;;;;;;5038907;28;20822;-79
2021/09/28 09:01:58;;;;;;;1999.90;999.90;;;16.20;99.90;;;;;;5020275;28;20917;-79
2021/09/28 09:04:29;;;;;;;1999.90;999.90;;;16.20;99.90;;;;;;5020173;28;20439;-79
2021/09/28 09:06:57;;;;;;;1999.90;999.90;;;16.30;99.90;;;;;;5020156;28;20449;-79
2021/09/28 09:09:47;;;;;;;1999.90;999.90;;;16.30;99.90;;;;;;5019743;28;20414;-79
2021/09/28 09:12:29;;;;;;;1999.90;999.90;;;16.40;99.90;;;;;;5037788;28;20476;-79
2021/09/28 09:15:24;;;;;;;1999.90;999.90;;;16.40;99.90;;;;;;5036372;28;20571;-79
2021/09/28 09:17:54;;;;;;;1751.67;710.97;;;16.60;99.90;;;;;;5019607;28;20507;-79
2021/09/28 09:20:32;;;;;;;1999.90;999.90;;;16.60;99.90;;;;;;5037564;28;20479;-79
2021/09/28 09:23:25;;;;;;;1606.90;691.73;;;16.70;99.90;;;;;;5019633;28;20473;-79
2021/09/28 09:26:07;;;;;;;1999.90;999.90;;;16.70;99.90;;;;;;5019456;28;20578;-79
2021/09/28 09:28:38;;;;;;;1999.90;999.90;;;16.70;99.90;;;;;;5036535;28;20434;-78
2021/09/28 09:31:21;;;;;;;1999.90;999.90;;;16.80;99.90;;;;;;5019446;28;20422;-79
2021/09/28 09:33:51;;;;;;;1999.90;999.90;;;16.80;99.90;;;;;;5018525;28;20446;-78
2021/09/28 09:36:22;;;;;;;1999.90;999.90;;;16.90;99.90;;;;;;5019038;28;20570;-79
2021/09/28 09:38:53;;;;;;;1564.63;686.80;;;16.90;99.90;;;;;;5018598;28;20414;-78
2021/09/28 09:41:27;;;;;;;1999.90;999.90;;;16.90;99.90;;;;;;5018560;28;20502;-79
2021/09/28 09:44:04;;;;;;;1999.90;999.90;;;16.90;99.90;;;;;;5018101;28;20777;-78
2021/09/28 09:46:49;;;;;;;1999.90;822.27;;;17.00;99.90;;;;;;5036188;28;20521;-79
2021/09/28 09:49:26;;;;;;;1999.90;999.90;;;17.10;99.90;;;;;;5018162;28;20452;-78
2021/09/28 09:51:58;;;;;;;1999.90;999.90;;;17.10;99.90;;;;;;5036831;28;20510;-78
2021/09/28 09:54:31;;;;;;;1999.90;999.90;;;17.20;99.90;;;;;;5035792;28;20433;-79
2021/09/28 09:57:04;;;;;;;1999.90;999.90;;;17.20;99.90;;;;;;5018859;28;20344;-79
2021/09/28 09:59:32;;;;;;;1999.90;999.90;;;17.30;99.90;;;;;;5035832;28;20467;-79
2021/09/28 10:02:03;;;;;;;1999.90;999.90;;;17.40;99.90;;;;;;5019239;28;20211;-79
2021/09/28 10:04:32;;;;;;;1999.90;999.90;;;17.40;99.90;;;;;;5018594;28;20454;-79
2021/09/28 10:07:02;;;;;;;1999.90;999.90;;;17.40;99.90;;;;;;5017499;28;20462;-79
2021/09/28 10:09:34;;;;;;;1999.90;999.90;;;17.40;99.90;;;;;;5018002;28;21033;-78
2021/09/28 10:12:05;;;;;;;1999.90;999.90;;;17.30;99.90;;;;;;5016548;28;20504;-78
2021/09/28 10:14:36;;;;;;;1999.90;999.90;;;17.40;99.90;;;;;;5016771;28;20475;-78
2021/09/28 10:17:40;;;;;;;1999.90;999.90;;;17.40;99.90;;;;;;5017081;28;20881;-78
2021/09/28 10:20:10;;;;;;;1999.90;999.90;;;17.40;99.90;;;;;;5017465;28;20461;-78
2021/09/28 10:22:49;;;;;;;1999.90;999.90;;;17.40;99.90;;;;;;5018221;28;20443;-79
2021/09/28 10:25:38;;;;;;;1999.90;999.90;;;17.40;99.90;;;;;;5018669;28;20474;-79
2021/09/28 10:28:40;;;;;;;1999.90;888.50;;;17.40;99.90;;;;;;5038041;28;20455;-79
2021/09/28 10:31:15;;;;;;;1999.90;999.90;;;17.30;99.90;;;;;;5019547;28;20427;-80
2021/09/28 10:33:54;;;;;;;1999.90;999.90;;;17.30;99.90;;;;;;5037500;28;20434;-80
2021/09/28 10:36:25;;;;;;;1999.90;999.90;;;17.30;99.90;;;;;;5037820;28;20486;-80
2021/09/28 10:38:59;;;;;;;1999.90;999.90;;;17.30;99.90;;;;;;5019229;28;20448;-80
2021/09/28 10:41:44;;;;;;;1999.90;999.90;;;17.40;99.90;;;;;;5037700;28;20180;-79
2021/09/28 10:44:48;;;;;;;1999.90;999.90;;;17.50;99.90;;;;;;5037227;28;20518;-80
2021/09/28 10:47:46;;;;;;;1999.90;840.37;;;17.50;99.90;;;;;;5019459;28;20967;-79
2021/09/28 10:50:30;;;;;;;1999.90;729.57;;;17.60;99.90;;;;;;5019083;28;20949;-80
2021/09/28 10:53:01;;;;;;;1999.90;785.47;;;17.60;99.90;;;;;;5019535;28;20497;-80
2021/09/28 10:55:39;;;;;;;1999.90;905.47;;;17.70;99.90;;;;;;5018814;28;20470;-80
2021/09/28 10:58:22;;;;;;;1999.90;822.30;;;17.70;99.90;;;;;;5018910;28;20476;-80
2021/09/28 11:01:12;;;;;;;1999.90;772.53;;;17.80;99.90;;;;;;5018919;28;20469;-80
2021/09/28 11:03:51;;;;;;;1999.90;799.97;;;17.80;99.90;;;;;;5018679;28;20435;-79
2021/09/28 11:06:48;;;;;;;1999.90;999.90;;;17.80;99.90;;;;;;5035238;28;20430;-79
2021/09/28 11:09:19;;;;;;;1999.90;817.77;;;17.90;99.90;;;;;;5020108;28;20184;-79
2021/09/28 11:11:52;;;;;;;1999.90;551.13;;;17.90;99.90;;;;;;5017108;28;20851;-80
2021/09/28 11:14:20;;;;;;;1999.90;601.87;;;18.00;99.90;;;;;;5018618;28;20465;-80
2021/09/28 11:16:53;;;;;;;1999.90;706.07;;;18.00;99.90;;;;;;5036484;28;20482;-79
2021/09/28 11:19:21;;;;;;;1999.90;880.60;;;18.00;99.90;;;;;;5019453;28;20485;-80
2021/09/28 11:21:51;;;;;;;1999.90;741.50;;;18.10;99.90;;;;;;5019276;28;20451;-80
2021/09/28 11:24:22;;;;;;;1999.90;907.73;;;18.10;99.90;;;;;;5037343;28;20439;-80
2021/09/28 11:26:50;;;;;;;1999.90;875.17;;;18.10;99.90;;;;;;5036998;28;20538;-80
2021/09/28 11:29:23;;;;;;;1999.90;657.43;;;18.20;99.90;;;;;;5020261;28;20458;-79
2021/09/28 11:31:51;;;;;;;1396.30;399.17;;;18.20;99.90;;;;;;5020269;28;20454;-80
2021/09/28 11:34:28;;;;;;;1958.83;601.00;;;18.20;99.90;;;;;;5037938;28;20506;-80
2021/09/28 11:37:18;;;;;;;1999.90;892.00;;;18.20;99.90;;;;;;5019660;28;20441;-80
2021/09/28 11:39:48;;;;;;;1999.90;659.10;;;18.30;99.90;;;;;;5038013;28;20260;-80
2021/09/28 11:42:16;;;;;;;1999.90;813.70;;;18.30;99.90;;;;;;5019257;28;20451;-79
2021/09/28 11:44:49;;;;;;;1999.90;999.90;;;18.30;99.90;;;;;;5035520;28;20448;-80
2021/09/28 11:47:26;;;;;;;1999.90;775.87;;;18.40;99.90;;;;;;5020210;28;20315;-80
2021/09/28 11:50:04;;;;;;;1882.33;581.40;;;18.40;99.90;;;;;;5020548;28;20581;-80
2021/09/28 11:52:36;;;;;;;1535.60;447.63;;;18.40;99.90;;;;;;5020088;28;20443;-80
2021/09/28 11:55:06;;;;;;;300.07;130.97;;;18.40;99.90;;;;;;5019386;28;20534;-80
2021/09/28 11:57:34;;;;;;;262.30;144.20;;;18.40;99.90;;;;;;5019781;28;20481;-80
2021/09/28 12:00:05;;;;;;;150.20;99.10;;;18.40;99.90;;;;;;5037553;28;20541;-80
2021/09/28 12:02:42;;;;;;;51.10;33.37;;;18.50;99.90;;;;;;5037357;28;20461;-79
2021/09/28 12:08:08;;;;;;;55.77;44.47;;;18.50;99.90;;;;;;5020878;28;20443;-79
2021/09/28 12:10:39;;;;;;;1999.90;613.72;;;18.60;99.90;;;;;;5037983;28;20933;-79
2021/09/28 12:13:32;;;;;;;71.00;37.50;;;18.70;99.90;;;;;;5021303;28;20474;-79
2021/09/28 12:16:12;;;;;;;1999.90;989.35;;;18.80;99.90;;;;;;5038018;28;20509;-79
2021/09/28 12:18:41;;;;;;;201.73;86.57;;;18.80;99.90;;;;;;5020832;28;20220;-79
2021/09/28 12:21:18;;;;;;;391.63;169.73;;;18.80;99.90;;;;;;5020898;28;20435;-79
2021/09/28 12:24:03;;;;;;;58.67;37.93;;;18.80;99.90;;;;;;5021005;28;20446;-79
2021/09/28 12:26:32;;;;;;;45.77;31.27;;;18.80;99.90;;;;;;5022502;28;21017;-79
2021/09/28 12:29:12;;;;;;;10.87;8.03;;;18.80;99.90;;;;;;5038920;28;20458;-79